createdAt,value
2023-12-14T00:00:53.824Z,99682.59
2023-12-14T00:03:39.301Z,99682.63
2023-12-14T00:06:11.125Z,99685.09
2023-12-14T00:08:42.638Z,99689.42
2023-12-14T00:11:14.407Z,99692.23
2023-12-14T00:13:45.524Z,99693.37
2023-12-14T00:16:14.881Z,99691.98
2023-12-14T00:18:45.961Z,99695.52
2023-12-14T00:21:17.164Z,99698.66
2023-12-14T00:23:46.520Z,99701.21
2023-12-14T00:26:17.577Z,99707.50
2023-12-14T00:28:48.801Z,99708.42
2023-12-14T00:31:18.116Z,99710.73
2023-12-14T00:33:55.412Z,99716.48
2023-12-14T00:36:26.625Z,99716.95
2023-12-14T00:38:56.002Z,99725.17
2023-12-14T00:41:27.055Z,99727.98
2023-12-14T00:43:56.505Z,99731.52
2023-12-14T00:46:29.371Z,99736.11
2023-12-14T00:48:58.907Z,99738.63
2023-12-14T00:51:30.101Z,99740.57
2023-12-14T00:53:59.520Z,99740.23
2023-12-14T00:56:30.592Z,99738.79
2023-12-14T00:59:00.094Z,99736.08
2023-12-14T01:01:31.373Z,99746.05
2023-12-14T01:04:02.641Z,99751.07
2023-12-14T01:06:31.951Z,99756.60
2023-12-14T01:09:04.391Z,99755.59
2023-12-14T01:11:35.583Z,99764.02
2023-12-14T01:14:06.804Z,99766.02
2023-12-14T01:16:38.100Z,99766.88
2023-12-14T01:19:09.329Z,99772.69
2023-12-14T01:21:40.475Z,99779.77
2023-12-14T01:24:09.847Z,99781.89
2023-12-14T01:26:41.527Z,99788.63
2023-12-14T01:29:12.730Z,99789.73
2023-12-14T01:31:43.857Z,99789.27
2023-12-14T01:34:13.275Z,99788.18
2023-12-14T01:36:44.573Z,99792.48
2023-12-14T01:39:15.603Z,99788.06
2023-12-14T01:41:46.618Z,99788.27
2023-12-14T01:44:15.947Z,99791.39
2023-12-14T01:46:47.039Z,99789.90
2023-12-14T01:49:16.439Z,99787.03
2023-12-14T01:51:47.548Z,99789.59
2023-12-14T01:54:16.896Z,99790.94
2023-12-14T01:56:47.858Z,99794.05
2023-12-14T01:59:18.963Z,99793.11
2023-12-14T02:01:53.270Z,99796.77
2023-12-14T02:04:25.070Z,99797.08
2023-12-14T02:06:56.131Z,99793.36
2023-12-14T02:09:27.209Z,99798.11
2023-12-14T02:11:56.523Z,99800.94
2023-12-14T02:14:27.647Z,99804.02
2023-12-14T02:16:57.010Z,99807.63
2023-12-14T02:19:28.087Z,99809.59
2023-12-14T02:21:57.389Z,99806.70
2023-12-14T02:24:28.468Z,99812.66
2023-12-14T02:27:02.936Z,99815.56
2023-12-14T02:29:35.441Z,99816.67
2023-12-14T02:32:08.667Z,99820.09
2023-12-14T02:34:39.843Z,99820.59
2023-12-14T02:37:09.228Z,99824.69
2023-12-14T02:39:40.384Z,99828.25
2023-12-14T02:42:11.375Z,99828.23
2023-12-14T02:44:40.778Z,99834.00
2023-12-14T02:47:11.821Z,99836.27
2023-12-14T02:49:41.197Z,99841.29
2023-12-14T02:52:12.248Z,99843.73
2023-12-14T02:54:42.218Z,99842.12
2023-12-14T02:57:13.430Z,99844.61
2023-12-14T02:59:44.520Z,99852.11
2023-12-14T03:02:13.886Z,99847.41
2023-12-14T03:04:44.955Z,99851.45
2023-12-14T03:07:14.346Z,99854.39
2023-12-14T03:09:45.486Z,99857.76
2023-12-14T03:12:14.852Z,99864.25
2023-12-14T03:14:45.901Z,99868.44
2023-12-14T03:17:17.147Z,99868.31
2023-12-14T03:19:48.286Z,99873.48
2023-12-14T03:22:17.663Z,99877.82
2023-12-14T03:24:48.688Z,99882.34
2023-12-14T03:27:18.034Z,99886.33
2023-12-14T03:29:49.110Z,99887.74
2023-12-14T03:32:18.419Z,99894.02
2023-12-14T03:34:49.640Z,99896.23
2023-12-14T03:37:20.760Z,99900.31
2023-12-14T03:39:50.132Z,99899.47
2023-12-14T03:42:21.247Z,99895.27
2023-12-14T03:44:50.657Z,99902.05
2023-12-14T03:47:21.732Z,99899.98
2023-12-14T03:49:51.165Z,99901.77
2023-12-14T03:52:22.447Z,99903.58
2023-12-14T03:54:53.637Z,99904.50
2023-12-14T03:57:35.065Z,99907.03
2023-12-14T04:00:11.919Z,99908.79
2023-12-14T04:02:43.034Z,99913.43
2023-12-14T04:05:12.461Z,99917.45
2023-12-14T04:07:43.857Z,99919.55
2023-12-14T04:10:15.322Z,99921.50
2023-12-14T04:12:46.333Z,99927.09
2023-12-14T04:15:15.758Z,99930.27
2023-12-14T04:17:46.914Z,99931.74
2023-12-14T04:20:16.389Z,99929.95
2023-12-14T04:22:47.638Z,99937.37
2023-12-14T04:25:18.841Z,99934.86
2023-12-14T04:27:48.169Z,99937.67
2023-12-14T04:30:19.252Z,99942.98
2023-12-14T04:32:49.263Z,99943.65
2023-12-14T04:35:20.661Z,99946.10
2023-12-14T04:37:51.973Z,99949.19
2023-12-14T04:40:23.305Z,99952.20
2023-12-14T04:42:54.323Z,99959.14
2023-12-14T04:45:25.358Z,99962.92
2023-12-14T04:47:54.849Z,99964.55
2023-12-14T04:50:25.994Z,99966.20
2023-12-14T04:52:55.329Z,99967.61
2023-12-14T04:55:33.012Z,99969.27
2023-12-14T04:58:04.786Z,99974.53
2023-12-14T05:00:35.930Z,99975.79
2023-12-14T05:03:07.182Z,99980.90
2023-12-14T05:05:38.302Z,99984.68
2023-12-14T05:08:07.707Z,99990.47
2023-12-14T05:10:39.106Z,99989.58
2023-12-14T05:13:10.189Z,99998.93
2023-12-14T05:15:39.710Z,100005.01
2023-12-14T05:18:10.915Z,100005.40
2023-12-14T05:20:42.035Z,100012.05
2023-12-14T05:23:11.384Z,100013.98
2023-12-14T05:25:42.593Z,100016.60
2023-12-14T05:28:13.880Z,100020.69
2023-12-14T05:30:45.173Z,100022.16
2023-12-14T05:33:16.896Z,100027.11
2023-12-14T05:35:48.018Z,100031.31
2023-12-14T05:38:17.427Z,100033.39
2023-12-14T05:40:48.750Z,100032.08
2023-12-14T05:43:18.079Z,100034.27
2023-12-14T05:45:49.198Z,100037.09
2023-12-14T05:48:18.543Z,100039.21
2023-12-14T05:50:49.719Z,100043.63
2023-12-14T05:53:21.008Z,100048.31
2023-12-14T05:55:58.921Z,100051.40
2023-12-14T05:58:30.049Z,100057.55
2023-12-14T06:00:59.779Z,100067.55
2023-12-14T06:03:31.187Z,100072.45
2023-12-14T06:06:02.322Z,100077.49
2023-12-14T06:08:31.708Z,100082.11
2023-12-14T06:11:03.464Z,100093.00
2023-12-14T06:13:35.350Z,100094.73
2023-12-14T06:16:07.302Z,100100.42
2023-12-14T06:18:38.766Z,100105.63
2023-12-14T06:21:12.354Z,100110.34
2023-12-14T06:23:43.769Z,100115.19
2023-12-14T06:26:18.046Z,100118.83
2023-12-14T06:29:00.331Z,100122.68
2023-12-14T06:31:31.590Z,100129.52
2023-12-14T06:34:02.765Z,100130.38
2023-12-14T06:36:34.188Z,100130.36
2023-12-14T06:39:05.339Z,100128.46
2023-12-14T06:41:36.412Z,100126.66
2023-12-14T06:44:06.274Z,100133.20
2023-12-14T06:46:37.857Z,100136.65
2023-12-14T06:49:12.312Z,100142.28
2023-12-14T06:51:43.610Z,100156.50
2023-12-14T06:54:14.703Z,100160.99
2023-12-14T06:56:44.007Z,100164.13
2023-12-14T06:59:15.380Z,100169.16
2023-12-14T07:01:46.442Z,100173.89
2023-12-14T07:04:17.557Z,100176.98
2023-12-14T07:06:54.465Z,100176.35
2023-12-14T07:09:25.799Z,100175.13
2023-12-14T07:11:56.924Z,100184.78
2023-12-14T07:14:26.736Z,100187.25
2023-12-14T07:16:57.854Z,100191.48
2023-12-14T07:19:27.943Z,100196.60
2023-12-14T07:21:59.076Z,100201.76
2023-12-14T07:24:29.609Z,100208.09
2023-12-14T07:27:02.637Z,100212.33
2023-12-14T07:29:56.403Z,100219.20
2023-12-14T07:32:27.529Z,100223.15
2023-12-14T07:34:56.979Z,100225.82
2023-12-14T07:37:28.483Z,100229.24
2023-12-14T07:39:59.625Z,100234.84
2023-12-14T07:42:33.277Z,100239.39
2023-12-14T07:45:06.997Z,100241.45
2023-12-14T07:47:38.398Z,100242.33
2023-12-14T07:50:10.310Z,100249.67
2023-12-14T07:52:41.745Z,100254.36
2023-12-14T07:55:19.842Z,100265.13
2023-12-14T07:57:52.493Z,100269.33
2023-12-14T08:00:23.718Z,100270.14
2023-12-14T08:02:54.815Z,100274.08
2023-12-14T08:05:24.387Z,100275.92
2023-12-14T08:07:55.754Z,100279.33
2023-12-14T08:10:26.834Z,100286.14
2023-12-14T08:12:56.179Z,100289.21
2023-12-14T08:15:27.254Z,100295.13
2023-12-14T08:17:56.640Z,100300.53
2023-12-14T08:20:27.909Z,100303.23
2023-12-14T08:22:59.010Z,100307.91
2023-12-14T08:25:28.376Z,100313.65
2023-12-14T08:28:01.230Z,100314.42
2023-12-14T08:30:33.790Z,100326.78
2023-12-14T08:33:05.136Z,100328.52
2023-12-14T08:35:36.251Z,100331.58
2023-12-14T08:38:08.095Z,100329.77
2023-12-14T08:40:39.276Z,100336.05
2023-12-14T08:43:10.430Z,100340.00
2023-12-14T08:45:41.921Z,100338.52
2023-12-14T08:48:11.351Z,100344.44
2023-12-14T08:50:42.628Z,100347.71
2023-12-14T08:53:13.703Z,100351.26
2023-12-14T08:55:43.779Z,100360.98
2023-12-14T08:58:15.050Z,100365.43
2023-12-14T09:00:46.193Z,100368.23
2023-12-14T09:03:17.480Z,100373.08
2023-12-14T09:05:49.210Z,100376.66
2023-12-14T09:08:20.627Z,100376.55
2023-12-14T09:10:55.942Z,100381.17
2023-12-14T09:13:28.657Z,100386.84
2023-12-14T09:15:59.796Z,100392.90
2023-12-14T09:18:29.829Z,100398.33
2023-12-14T09:21:01.002Z,100407.80
2023-12-14T09:23:30.413Z,100410.05
2023-12-14T09:26:02.482Z,100412.42
2023-12-14T09:28:33.881Z,100417.50
2023-12-14T09:31:05.500Z,100421.41
2023-12-14T09:33:38.813Z,100419.45
2023-12-14T09:36:12.699Z,100423.83
2023-12-14T09:38:43.918Z,100423.90
2023-12-14T09:41:15.137Z,100422.66
2023-12-14T09:43:47.855Z,100424.16
2023-12-14T09:46:22.026Z,100423.23
2023-12-14T09:48:54.654Z,100425.40
2023-12-14T09:51:26.105Z,100426.02
2023-12-14T09:53:57.395Z,100426.77
2023-12-14T09:56:29.535Z,100426.16
2023-12-14T09:59:00.631Z,100429.09
2023-12-14T10:01:30.199Z,100433.77
2023-12-14T10:04:15.576Z,100433.87
2023-12-14T10:06:48.268Z,100429.51
2023-12-14T10:09:25.989Z,100432.52
2023-12-14T10:12:05.991Z,100435.83
2023-12-14T10:14:37.811Z,100437.15
2023-12-14T10:17:20.547Z,100435.98
2023-12-14T10:19:51.919Z,100437.41
2023-12-14T10:22:24.005Z,100439.00
2023-12-14T10:24:53.455Z,100441.66
2023-12-14T10:27:24.725Z,100442.65
2023-12-14T10:29:56.727Z,100450.52
2023-12-14T10:32:28.149Z,100450.71
2023-12-14T10:34:59.355Z,100451.19
2023-12-14T10:37:28.750Z,100455.48
2023-12-14T10:40:01.109Z,100462.46
2023-12-14T10:42:33.263Z,100462.13
2023-12-14T10:45:16.962Z,100460.84
2023-12-14T10:47:51.795Z,100459.64
2023-12-14T10:50:25.758Z,100462.89
2023-12-14T10:53:08.290Z,100464.31
2023-12-14T10:55:42.590Z,100470.77
2023-12-14T10:58:14.181Z,100473.63
2023-12-14T11:00:58.689Z,100477.55
2023-12-14T11:03:36.801Z,100474.48
2023-12-14T11:06:30.260Z,100480.20
2023-12-14T11:09:02.859Z,100483.86
2023-12-14T11:11:42.915Z,100490.63
2023-12-14T11:14:15.120Z,100492.11
2023-12-14T11:16:48.609Z,100495.09
2023-12-14T11:19:30.530Z,100494.13
2023-12-14T11:22:25.601Z,100495.94
2023-12-14T11:25:02.376Z,100497.47
2023-12-14T11:27:48.435Z,100491.24
2023-12-14T11:30:23.334Z,100499.46
2023-12-14T11:32:56.229Z,100504.62
2023-12-14T11:35:27.490Z,100508.66
2023-12-14T11:37:58.743Z,100517.80
2023-12-14T11:40:30.285Z,100521.23
2023-12-14T11:43:04.848Z,100522.29
2023-12-14T11:45:37.853Z,100523.29
2023-12-14T11:48:10.354Z,100523.52
2023-12-14T11:50:44.725Z,100523.27
2023-12-14T11:53:16.326Z,100532.08
2023-12-14T11:55:54.666Z,100534.92
2023-12-14T11:58:47.203Z,100544.27
2023-12-14T12:01:21.173Z,100551.02
2023-12-14T12:03:52.284Z,100551.61
2023-12-14T12:06:27.863Z,100550.98
2023-12-14T12:08:59.386Z,100554.61
2023-12-14T12:11:32.168Z,100555.58
2023-12-14T12:14:03.955Z,100557.14
2023-12-14T12:16:35.503Z,100559.14
2023-12-14T12:19:06.649Z,100558.60
2023-12-14T12:21:36.020Z,100562.52
2023-12-14T12:24:18.404Z,100563.14
2023-12-14T12:27:08.063Z,100566.14
2023-12-14T12:29:39.203Z,100568.13
2023-12-14T12:32:08.616Z,100569.24
2023-12-14T12:34:39.781Z,100569.57
2023-12-14T12:37:09.134Z,100573.69
2023-12-14T12:39:40.170Z,100578.42
2023-12-14T12:42:09.546Z,100584.68
2023-12-14T12:44:40.600Z,100588.27
2023-12-14T12:47:11.570Z,100591.46
2023-12-14T12:49:41.355Z,100591.02
2023-12-14T12:52:12.515Z,100596.48
2023-12-14T12:54:41.824Z,100600.42
2023-12-14T12:57:13.059Z,100604.08
2023-12-14T12:59:42.394Z,100607.90
2023-12-14T13:02:14.084Z,100612.41
2023-12-14T13:04:45.850Z,100612.60
2023-12-14T13:07:18.823Z,100609.77
2023-12-14T13:09:52.906Z,100610.77
2023-12-14T13:12:24.213Z,100611.54
2023-12-14T13:14:55.308Z,100613.85
2023-12-14T13:17:24.756Z,100622.45
2023-12-14T13:19:56.136Z,100625.02
2023-12-14T13:22:29.765Z,100629.54
2023-12-14T13:25:02.426Z,100638.92
2023-12-14T13:27:32.843Z,100642.36
2023-12-14T13:30:04.411Z,100645.43
2023-12-14T13:32:35.614Z,100650.67
2023-12-14T13:35:05.555Z,100654.50
2023-12-14T13:37:36.959Z,100655.50
2023-12-14T13:40:10.171Z,100661.60
2023-12-14T13:42:50.773Z,100660.90
2023-12-14T13:45:30.754Z,100664.89
2023-12-14T13:48:05.013Z,100674.91
2023-12-14T13:50:36.619Z,100680.63
2023-12-14T13:53:07.865Z,100679.40
2023-12-14T13:55:39.077Z,100680.30
2023-12-14T13:58:10.354Z,100686.92
2023-12-14T14:00:41.629Z,100692.77
2023-12-14T14:03:12.838Z,100698.85
2023-12-14T14:05:44.536Z,100703.52
2023-12-14T14:08:17.768Z,100713.23
2023-12-14T14:10:49.269Z,100719.54
2023-12-14T14:13:20.505Z,100730.14
2023-12-14T14:15:50.271Z,100739.25
2023-12-14T14:18:21.778Z,100748.10
2023-12-14T14:20:53.598Z,100749.63
2023-12-14T14:23:24.724Z,100752.67
2023-12-14T14:25:55.046Z,100763.31
2023-12-14T14:28:26.472Z,100768.25
2023-12-14T14:31:20.556Z,100771.34
2023-12-14T14:33:49.542Z,100774.63
2023-12-14T14:36:20.708Z,100778.33
2023-12-14T14:38:50.075Z,100776.27
2023-12-14T14:41:22.670Z,100783.56
2023-12-14T14:43:56.578Z,100789.25
2023-12-14T14:46:25.901Z,100790.21
2023-12-14T14:48:57.024Z,100798.98
2023-12-14T14:51:26.518Z,100802.13
2023-12-14T14:53:57.614Z,100799.60
2023-12-14T14:56:26.980Z,100810.28
2023-12-14T14:58:58.805Z,100815.77
2023-12-14T15:01:30.010Z,100820.61
2023-12-14T15:03:59.432Z,100830.42
2023-12-14T15:06:30.643Z,100835.60
2023-12-14T15:09:01.746Z,100840.48
2023-12-14T15:11:31.276Z,100841.92
2023-12-14T15:14:02.438Z,100841.55
2023-12-14T15:16:31.754Z,100849.08
2023-12-14T15:19:03.221Z,100850.59
2023-12-14T15:21:34.343Z,100850.20
2023-12-14T15:24:03.885Z,100853.96
2023-12-14T15:26:36.363Z,100859.89
2023-12-14T15:29:07.608Z,100868.48
2023-12-14T15:31:38.992Z,100874.52
2023-12-14T15:34:10.491Z,100879.30
2023-12-14T15:36:42.882Z,100885.23
2023-12-14T15:39:14.212Z,100888.17
2023-12-14T15:41:47.861Z,100892.52
2023-12-14T15:44:23.788Z,100901.03
2023-12-14T15:46:56.610Z,100906.46
2023-12-14T15:49:27.712Z,100912.64
2023-12-14T15:51:59.586Z,100916.92
2023-12-14T15:54:30.921Z,100910.83
2023-12-14T15:57:03.836Z,100915.11
2023-12-14T15:59:35.065Z,100913.23
2023-12-14T16:02:08.680Z,100915.44
2023-12-14T16:04:39.918Z,100928.06
2023-12-14T16:07:09.297Z,100937.84
2023-12-14T16:09:42.838Z,100947.84
2023-12-14T16:12:18.192Z,100955.70
2023-12-14T16:14:49.305Z,100957.83
2023-12-14T16:17:18.776Z,100958.38
2023-12-14T16:19:51.553Z,100956.34
2023-12-14T16:22:23.155Z,100951.80
2023-12-14T16:24:54.531Z,100953.92
2023-12-14T16:27:25.981Z,100963.86
2023-12-14T16:29:59.295Z,100963.23
2023-12-14T16:32:33.370Z,100962.73
2023-12-14T16:35:12.397Z,100966.01
2023-12-14T16:37:43.599Z,100966.54
2023-12-14T16:40:15.025Z,100971.29
2023-12-14T16:42:48.785Z,100971.39
2023-12-14T16:45:19.907Z,100969.30
2023-12-14T16:47:49.409Z,100971.93
2023-12-14T16:50:21.457Z,100979.17
2023-12-14T16:52:52.704Z,100988.39
2023-12-14T16:55:30.622Z,100995.67
2023-12-14T16:58:03.061Z,100996.54
2023-12-14T17:00:34.213Z,100996.15
2023-12-14T17:03:03.550Z,100999.90
2023-12-14T17:05:34.862Z,101002.11
2023-12-14T17:08:06.583Z,101004.69
2023-12-14T17:10:39.169Z,101006.99
2023-12-14T17:13:10.223Z,101012.20
2023-12-14T17:15:40.042Z,101019.65
2023-12-14T17:18:11.327Z,101029.77
2023-12-14T17:20:42.470Z,101039.17
2023-12-14T17:23:11.936Z,101048.88
2023-12-14T17:25:43.162Z,101049.14
2023-12-14T17:28:14.643Z,101055.23
2023-12-14T17:30:46.008Z,101052.33
2023-12-14T17:33:17.249Z,101054.52
2023-12-14T17:35:49.122Z,101057.96
2023-12-14T17:38:20.225Z,101062.17
2023-12-14T17:40:52.067Z,101067.46
2023-12-14T17:43:23.119Z,101069.13
2023-12-14T17:45:54.834Z,101075.82
2023-12-14T17:48:25.999Z,101078.75
2023-12-14T17:50:57.860Z,101088.20
2023-12-14T17:53:29.425Z,101086.65
2023-12-14T17:56:07.449Z,101090.19
2023-12-14T17:58:38.649Z,101094.70
2023-12-14T18:01:10.076Z,101098.65
2023-12-14T18:03:41.167Z,101101.44
2023-12-14T18:06:10.612Z,101104.98
2023-12-14T18:08:45.742Z,101108.19
2023-12-14T18:11:16.921Z,101114.98
2023-12-14T18:13:48.702Z,101121.94
2023-12-14T18:16:20.155Z,101122.48
2023-12-14T18:18:51.726Z,101124.22
2023-12-14T18:21:23.055Z,101131.88
2023-12-14T18:23:54.488Z,101136.40
2023-12-14T18:26:25.720Z,101145.33
2023-12-14T18:28:57.690Z,101147.42
2023-12-14T18:31:33.078Z,101150.11
2023-12-14T18:34:04.970Z,101152.44
2023-12-14T18:36:36.315Z,101155.75
2023-12-14T18:39:09.317Z,101159.93
2023-12-14T18:41:41.049Z,101168.31
2023-12-14T18:44:14.172Z,101169.65
2023-12-14T18:46:45.752Z,101170.20
2023-12-14T18:49:20.617Z,101176.69
2023-12-14T18:51:51.994Z,101182.24
2023-12-14T18:54:24.685Z,101184.80
2023-12-14T18:56:57.392Z,101192.62
2023-12-14T18:59:31.327Z,101198.83
2023-12-14T19:02:25.708Z,101204.66
2023-12-14T19:05:05.420Z,101218.21
2023-12-14T19:07:37.176Z,101222.92
2023-12-14T19:10:10.426Z,101219.58
2023-12-14T19:12:41.559Z,101220.90
2023-12-14T19:15:12.811Z,101220.67
2023-12-14T19:17:44.546Z,101230.67
2023-12-14T19:20:16.982Z,101234.27
2023-12-14T19:22:48.575Z,101232.65
2023-12-14T19:25:23.953Z,101233.75
2023-12-14T19:27:55.653Z,101241.11
2023-12-14T19:30:26.847Z,101246.02
2023-12-14T19:32:58.162Z,101254.89
2023-12-14T19:35:29.239Z,101258.36
2023-12-14T19:38:25.035Z,101260.80
2023-12-14T19:40:54.304Z,101262.20
2023-12-14T19:43:25.817Z,101268.36
2023-12-14T19:46:27.874Z,101267.05
2023-12-14T19:48:49.646Z,101269.97
2023-12-14T19:51:21.649Z,101278.74
2023-12-14T19:53:53.064Z,101282.13
2023-12-14T19:56:25.903Z,101283.23
2023-12-14T19:58:57.796Z,101283.40
2023-12-14T20:01:42.063Z,101290.54
2023-12-14T20:04:16.412Z,101295.87
2023-12-14T20:07:11.602Z,101302.61
2023-12-14T20:09:50.218Z,101307.15
2023-12-14T20:12:28.956Z,101317.48
2023-12-14T20:15:04.155Z,101321.23
2023-12-14T20:17:35.555Z,101327.14
2023-12-14T20:20:10.428Z,101325.31
2023-12-14T20:22:41.672Z,101332.54
2023-12-14T20:25:13.088Z,101337.94
2023-12-14T20:27:46.529Z,101341.61
2023-12-14T20:30:18.374Z,101338.40
2023-12-14T20:32:50.780Z,101346.55
2023-12-14T20:35:22.414Z,101351.91
2023-12-14T20:37:55.247Z,101355.99
2023-12-14T20:40:26.619Z,101366.57
2023-12-14T20:42:57.745Z,101371.54
2023-12-14T20:45:29.324Z,101382.98
2023-12-14T20:48:00.584Z,101382.01
2023-12-14T20:50:32.172Z,101388.37
2023-12-14T20:53:03.393Z,101395.89
2023-12-14T20:55:41.447Z,101392.43
2023-12-14T20:58:14.206Z,101394.48
2023-12-14T21:00:45.952Z,101393.60
2023-12-14T21:03:17.084Z,101392.40
2023-12-14T21:05:49.505Z,101391.48
2023-12-14T21:08:21.435Z,101390.58
2023-12-14T21:10:54.031Z,101389.92
2023-12-14T21:13:25.492Z,101395.49
2023-12-14T21:15:56.595Z,101404.97
2023-12-14T21:18:26.455Z,101405.61
2023-12-14T21:20:57.975Z,101407.08
2023-12-14T21:23:29.062Z,101408.13
2023-12-14T21:26:01.748Z,101409.50
2023-12-14T21:28:33.498Z,101409.64
2023-12-14T21:31:05.146Z,101415.38
2023-12-14T21:33:36.368Z,101415.02
2023-12-14T21:36:10.615Z,101419.52
2023-12-14T21:38:41.631Z,101415.21
2023-12-14T21:41:14.207Z,101412.90
2023-12-14T21:43:45.455Z,101415.69
2023-12-14T21:46:16.604Z,101418.77
2023-12-14T21:48:49.004Z,101425.19
2023-12-14T21:51:20.173Z,101434.92
2023-12-14T21:53:49.480Z,101438.08
2023-12-14T21:56:27.389Z,101442.41
2023-12-14T21:58:58.474Z,101448.73
2023-12-14T22:01:27.866Z,101450.45
2023-12-14T22:03:59.230Z,101450.43
2023-12-14T22:06:30.379Z,101450.65
2023-12-14T22:08:59.726Z,101459.62
2023-12-14T22:11:30.818Z,101463.69
2023-12-14T22:14:00.325Z,101465.52
2023-12-14T22:16:31.422Z,101469.66
2023-12-14T22:19:00.880Z,101473.63
2023-12-14T22:21:32.039Z,101481.56
2023-12-14T22:24:01.384Z,101479.98
2023-12-14T22:26:34.682Z,101475.45
2023-12-14T22:29:09.053Z,101479.09
2023-12-14T22:31:40.086Z,101480.52
2023-12-14T22:34:12.202Z,101475.96
2023-12-14T22:37:09.590Z,101476.94
2023-12-14T22:39:41.123Z,101481.30
2023-12-14T22:42:22.751Z,101480.95
2023-12-14T22:45:15.118Z,101488.30
2023-12-14T22:47:44.572Z,101487.98
2023-12-14T22:50:15.874Z,101491.65
2023-12-14T22:52:45.291Z,101491.07
2023-12-14T22:55:18.097Z,101487.54
2023-12-14T22:57:49.322Z,101486.27
2023-12-14T23:02:59.639Z,101490.97
2023-12-14T23:05:30.869Z,101499.00
2023-12-14T23:08:00.346Z,101501.86
2023-12-14T23:10:31.410Z,101508.42
2023-12-14T23:13:00.857Z,101505.73
2023-12-14T23:15:31.884Z,101507.62
2023-12-14T23:18:01.330Z,101508.05
2023-12-14T23:20:32.469Z,101509.22
2023-12-14T23:23:03.829Z,101509.86
2023-12-14T23:25:34.933Z,101517.00
2023-12-14T23:28:04.521Z,101518.46
2023-12-14T23:30:35.877Z,101524.69
2023-12-14T23:33:07.498Z,101528.71
2023-12-14T23:35:45.760Z,101532.75
2023-12-14T23:38:40.260Z,101538.73
2023-12-14T23:41:09.682Z,101538.27
2023-12-14T23:43:41.393Z,101545.27
2023-12-14T23:46:13.517Z,101547.55
2023-12-14T23:48:44.709Z,101553.14
2023-12-14T23:51:15.929Z,101556.58
2023-12-14T23:53:45.280Z,101551.83
2023-12-14T23:56:16.299Z,101562.09
2023-12-14T23:58:53.694Z,101559.05
